createdAt,value
2022-07-29T00:02:27.341Z,17.00
2022-07-29T00:05:10.267Z,17.01
2022-07-29T00:07:49.107Z,17.18
2022-07-29T00:10:31.120Z,17.19
2022-07-29T00:13:32.148Z,17.12
2022-07-29T00:16:56.608Z,16.85
2022-07-29T00:19:45.778Z,17.26
2022-07-29T00:22:34.383Z,17.26
2022-07-29T00:25:02.280Z,16.23
2022-07-29T00:27:30.202Z,16.48
2022-07-29T00:29:58.123Z,16.59
2022-07-29T00:32:40.098Z,17.25
2022-07-29T00:35:26.938Z,17.26
2022-07-29T00:37:56.543Z,17.21
2022-07-29T00:40:39.922Z,17.24
2022-07-29T00:43:20.303Z,16.77
2022-07-29T00:45:59.328Z,17.29
2022-07-29T00:48:50.156Z,17.29
2022-07-29T00:51:34.324Z,17.19
2022-07-29T00:54:39.865Z,16.96
2022-07-29T00:57:28.833Z,16.97
2022-07-29T01:02:51.775Z,17.23
2022-07-29T01:05:51.200Z,17.22
2022-07-29T01:08:56.923Z,17.19
2022-07-29T01:11:37.038Z,17.16
2022-07-29T01:17:19.093Z,17.09
2022-07-29T01:23:29.752Z,17.02
2022-07-29T01:26:10.974Z,16.99
2022-07-29T01:28:51.393Z,16.93
2022-07-29T01:31:32.497Z,16.47
2022-07-29T01:37:55.876Z,16.87
2022-07-29T01:41:01.933Z,16.83
2022-07-29T01:44:03.080Z,16.75
2022-07-29T01:46:42.588Z,16.70
2022-07-29T01:49:22.981Z,16.66
2022-07-29T01:51:56.547Z,16.63
2022-07-29T01:54:32.400Z,16.42
2022-07-29T01:57:02.289Z,16.59
2022-07-29T01:59:38.048Z,16.51
2022-07-29T02:02:09.271Z,16.58
2022-07-29T02:04:38.807Z,16.20
2022-07-29T02:07:10.139Z,16.47
2022-07-29T02:09:43.856Z,16.56
2022-07-29T02:12:17.651Z,16.54
2022-07-29T02:14:58.244Z,16.54
2022-07-29T02:17:38.862Z,16.16
2022-07-29T02:20:28.638Z,16.43
2022-07-29T02:23:01.999Z,15.45
2022-07-29T02:25:44.277Z,16.31
2022-07-29T02:28:37.050Z,16.24
2022-07-29T02:31:09.916Z,15.99
2022-07-29T02:33:52.454Z,16.02
2022-07-29T02:36:25.741Z,16.09
2022-07-29T02:38:58.600Z,16.05
2022-07-29T02:41:31.272Z,16.00
2022-07-29T02:44:03.663Z,15.95
2022-07-29T02:46:34.716Z,15.56
2022-07-29T02:49:11.036Z,15.41
2022-07-29T02:51:45.186Z,15.80
2022-07-29T02:54:21.900Z,15.75
2022-07-29T02:56:55.262Z,15.54
2022-07-29T02:59:28.337Z,15.55
2022-07-29T03:02:02.362Z,15.58
2022-07-29T03:04:39.031Z,15.54
2022-07-29T03:07:09.775Z,15.50
2022-07-29T03:09:45.713Z,15.35
2022-07-29T03:12:25.921Z,15.44
2022-07-29T03:15:02.369Z,15.42
2022-07-29T03:17:53.717Z,15.39
2022-07-29T03:20:27.307Z,15.35
2022-07-29T03:23:01.769Z,15.28
2022-07-29T03:25:31.982Z,14.91
2022-07-29T03:28:03.736Z,15.22
2022-07-29T03:30:45.674Z,15.02
2022-07-29T03:33:20.504Z,15.12
2022-07-29T03:35:53.129Z,14.65
2022-07-29T03:38:30.551Z,15.05
2022-07-29T03:41:12.337Z,14.75
2022-07-29T03:43:49.323Z,14.98
2022-07-29T03:46:23.271Z,14.71
2022-07-29T03:49:04.045Z,14.92
2022-07-29T03:51:34.071Z,14.94
2022-07-29T03:54:09.295Z,14.95
2022-07-29T03:56:42.186Z,14.97
2022-07-29T03:59:19.100Z,14.84
2022-07-29T04:01:49.950Z,14.83
2022-07-29T04:04:20.354Z,15.08
2022-07-29T04:06:48.621Z,14.28
2022-07-29T04:09:18.077Z,14.47
2022-07-29T04:12:01.735Z,14.66
2022-07-29T04:14:32.494Z,15.25
2022-07-29T04:17:00.328Z,15.32
2022-07-29T04:19:29.698Z,15.40
2022-07-29T04:21:57.630Z,15.47
2022-07-29T04:24:26.484Z,15.32
2022-07-29T04:27:04.369Z,15.57
2022-07-29T04:29:32.177Z,15.49
2022-07-29T04:31:59.980Z,15.72
2022-07-29T04:34:31.451Z,15.80
2022-07-29T04:37:02.538Z,15.89
2022-07-29T04:39:30.600Z,15.72
2022-07-29T04:41:58.559Z,15.93
2022-07-29T04:44:28.698Z,15.91
2022-07-29T04:46:58.527Z,16.04
2022-07-29T04:49:26.906Z,16.07
2022-07-29T04:51:57.972Z,16.21
2022-07-29T04:54:25.904Z,16.32
2022-07-29T04:56:54.307Z,16.41
2022-07-29T04:59:22.194Z,16.41
2022-07-29T05:01:50.744Z,16.75
2022-07-29T05:04:20.465Z,17.35
2022-07-29T05:06:49.648Z,18.49
2022-07-29T05:09:32.811Z,18.50
2022-07-29T05:12:01.142Z,18.30
2022-07-29T05:14:29.353Z,17.34
2022-07-29T05:16:58.250Z,17.78
2022-07-29T05:19:28.943Z,17.90
2022-07-29T05:24:52.200Z,18.30
2022-07-29T05:27:27.169Z,17.64
2022-07-29T05:30:32.366Z,17.28
2022-07-29T05:33:36.229Z,17.45
2022-07-29T05:36:29.970Z,18.37
2022-07-29T05:46:25.168Z,20.77
2022-07-29T06:39:25.361Z,28.93
2022-07-29T06:41:53.841Z,28.86
2022-07-29T06:48:16.526Z,28.10
2022-07-29T06:50:46.874Z,30.21
2022-07-29T06:53:18.242Z,32.55
2022-07-29T06:55:50.209Z,33.00
2022-07-29T06:58:21.315Z,32.28
2022-07-29T07:00:57.749Z,32.29
2022-07-29T07:03:26.269Z,31.59
2022-07-29T07:05:55.200Z,31.66
2022-07-29T07:08:24.637Z,30.26
2022-07-29T07:10:56.111Z,30.08
2022-07-29T07:49:28.889Z,35.20
2022-07-29T07:51:59.919Z,33.04
2022-07-29T07:54:28.095Z,32.32
2022-07-29T07:56:57.703Z,30.43
2022-07-29T07:59:26.098Z,29.86
2022-07-29T08:01:55.786Z,29.11
2022-07-29T08:04:39.981Z,29.50
2022-07-29T08:11:34.787Z,27.87
2022-07-29T08:20:15.289Z,33.97
2022-07-29T08:22:43.042Z,37.24
2022-07-29T08:25:11.019Z,39.72
2022-07-29T08:27:44.100Z,41.49
2022-07-29T08:30:12.681Z,43.01
2022-07-29T08:32:53.880Z,43.48
2022-07-29T08:35:25.500Z,44.30
2022-07-29T08:37:54.000Z,45.20
2022-07-29T08:40:31.838Z,45.15
2022-07-29T08:43:01.141Z,45.96
2022-07-29T08:45:31.374Z,46.28
2022-07-29T08:47:59.356Z,46.52
2022-07-29T08:50:28.696Z,45.39
2022-07-29T08:52:59.847Z,43.87
2022-07-29T08:55:28.675Z,43.06
2022-07-29T08:57:57.988Z,43.47
2022-07-29T09:00:28.502Z,44.18
2022-07-29T09:03:00.079Z,44.87
2022-07-29T09:05:30.578Z,45.67
2022-07-29T09:07:58.562Z,46.25
2022-07-29T09:10:26.390Z,46.83
2022-07-29T09:12:54.385Z,47.18
2022-07-29T09:15:22.645Z,47.38
2022-07-29T09:17:51.430Z,47.48
2022-07-29T09:20:21.045Z,47.58
2022-07-29T09:22:51.780Z,48.26
2022-07-29T09:25:34.187Z,48.54
2022-07-29T09:28:08.005Z,47.65
2022-07-29T09:30:35.885Z,47.80
2022-07-29T09:33:05.370Z,47.66
2022-07-29T09:35:33.335Z,47.87
2022-07-29T09:38:12.361Z,48.00
2022-07-29T09:40:40.766Z,48.35
2022-07-29T09:43:12.501Z,48.29
2022-07-29T09:45:40.794Z,48.09
2022-07-29T09:48:19.718Z,48.26
2022-07-29T09:50:50.482Z,49.03
2022-07-29T09:53:33.891Z,49.28
2022-07-29T09:56:02.111Z,47.58
2022-07-29T09:58:30.186Z,46.16
2022-07-29T10:00:58.667Z,46.42
2022-07-29T10:03:26.837Z,47.21
2022-07-29T10:06:09.224Z,47.70
2022-07-29T10:08:38.869Z,47.30
2022-07-29T10:11:12.086Z,46.71
2022-07-29T10:13:40.567Z,46.25
2022-07-29T10:16:09.167Z,45.98
2022-07-29T10:18:37.482Z,45.75
2022-07-29T10:21:05.525Z,45.95
2022-07-29T10:23:46.254Z,46.15
2022-07-29T10:26:18.100Z,45.38
2022-07-29T10:28:46.418Z,44.86
2022-07-29T10:31:22.681Z,45.38
2022-07-29T10:34:04.886Z,45.55
2022-07-29T10:36:51.170Z,45.37
2022-07-29T10:39:44.478Z,45.84
2022-07-29T10:42:29.647Z,43.99
2022-07-29T10:45:05.749Z,41.83
2022-07-29T10:47:35.402Z,40.94
2022-07-29T10:50:05.891Z,40.84
2022-07-29T10:52:55.374Z,40.32
2022-07-29T10:55:34.150Z,39.42
2022-07-29T10:58:16.107Z,39.26
2022-07-29T11:00:47.799Z,39.68
2022-07-29T11:07:08.984Z,39.65
2022-07-29T11:09:38.414Z,42.02
2022-07-29T11:12:27.014Z,43.48
2022-07-29T11:15:01.406Z,44.06
2022-07-29T11:17:47.275Z,42.71
2022-07-29T11:20:34.052Z,40.59
2022-07-29T11:23:02.513Z,39.25
2022-07-29T11:25:50.073Z,37.99
2022-07-29T11:28:25.293Z,37.59
2022-07-29T11:30:56.078Z,37.54
2022-07-29T11:33:54.830Z,37.22
2022-07-29T11:36:28.027Z,37.20
2022-07-29T11:39:36.687Z,36.79
2022-07-29T11:42:41.988Z,35.91
2022-07-29T11:45:43.003Z,35.36
2022-07-29T11:50:54.989Z,35.12
2022-07-29T11:53:22.972Z,35.04
2022-07-29T11:55:58.119Z,34.64
2022-07-29T11:58:27.031Z,34.44
2022-07-29T12:00:56.254Z,33.93
2022-07-29T12:06:17.928Z,33.53
2022-07-29T12:08:46.835Z,33.45
2022-07-29T12:11:20.519Z,33.40
2022-07-29T12:13:49.610Z,33.23
2022-07-29T12:16:25.897Z,32.97
2022-07-29T12:19:02.981Z,32.76
2022-07-29T12:21:31.387Z,32.44
2022-07-29T12:24:05.784Z,32.65
2022-07-29T12:26:37.159Z,32.79
2022-07-29T12:29:11.374Z,32.71
2022-07-29T12:31:43.567Z,32.71
2022-07-29T12:34:16.625Z,32.62
2022-07-29T12:36:44.818Z,32.44
2022-07-29T12:39:13.305Z,32.35
2022-07-29T12:41:41.147Z,32.25
2022-07-29T12:44:09.048Z,32.06
2022-07-29T12:46:37.227Z,31.51
2022-07-29T12:49:05.489Z,31.46
2022-07-29T12:56:20.737Z,30.99
2022-07-29T12:58:53.750Z,30.88
2022-07-29T13:01:22.202Z,30.75
2022-07-29T13:03:57.522Z,29.76
2022-07-29T13:06:42.187Z,30.46
2022-07-29T13:09:18.955Z,30.15
2022-07-29T13:11:51.344Z,30.71
2022-07-29T13:15:11.974Z,30.01
2022-07-29T13:17:56.145Z,30.42
2022-07-29T13:20:34.270Z,30.57
2022-07-29T13:27:32.941Z,29.88
2022-07-29T13:33:01.132Z,30.19
2022-07-29T13:36:15.660Z,30.03
2022-07-29T13:42:10.667Z,29.47
2022-07-29T13:44:52.873Z,29.68
2022-07-29T13:47:49.432Z,30.03
2022-07-29T13:50:17.751Z,30.13
2022-07-29T13:53:47.417Z,30.03
2022-07-29T13:56:55.885Z,29.63
2022-07-29T14:00:14.750Z,30.00
2022-07-29T14:02:44.208Z,29.92
2022-07-29T14:05:13.152Z,29.87
2022-07-29T14:08:10.805Z,29.70
2022-07-29T14:15:49.935Z,29.33
2022-07-29T14:18:34.233Z,29.31
2022-07-29T14:21:49.676Z,29.27
2022-07-29T14:25:38.441Z,29.12
2022-07-29T14:32:26.459Z,27.84
2022-07-29T14:37:42.857Z,29.29
2022-07-29T14:49:49.412Z,29.11
2022-07-29T14:52:18.957Z,29.11
2022-07-29T14:56:15.331Z,29.09
2022-07-29T14:59:35.440Z,28.88
2022-07-29T15:25:44.278Z,28.60
2022-07-29T15:28:12.587Z,28.69
2022-07-29T15:30:42.170Z,28.77
2022-07-29T15:33:10.962Z,28.87
2022-07-29T15:35:40.559Z,28.77
2022-07-29T15:44:22.715Z,28.82
2022-07-29T15:47:08.084Z,28.78
2022-07-29T15:49:48.699Z,28.63
2022-07-29T16:05:43.370Z,28.01
2022-07-29T16:08:11.118Z,27.99
2022-07-29T16:10:38.911Z,27.94
2022-07-29T16:13:06.659Z,27.86
2022-07-29T16:15:34.716Z,27.75
2022-07-29T16:18:02.516Z,27.73
2022-07-29T16:20:30.911Z,27.57
2022-07-29T16:23:00.034Z,27.62
2022-07-29T16:25:50.199Z,27.59
2022-07-29T16:28:15.756Z,27.47
2022-07-29T16:30:43.677Z,27.57
2022-07-29T16:33:11.436Z,27.55
2022-07-29T16:35:40.434Z,27.49
2022-07-29T16:59:43.463Z,26.64
2022-07-29T17:02:11.976Z,26.49
2022-07-29T17:04:41.189Z,26.31
2022-07-29T17:07:08.978Z,26.18
2022-07-29T17:09:36.736Z,26.08
2022-07-29T17:12:04.896Z,26.00
2022-07-29T17:14:38.466Z,25.82
2022-07-29T17:17:13.468Z,25.88
2022-07-29T17:19:44.724Z,25.78
2022-07-29T17:22:18.723Z,25.67
2022-07-29T17:24:47.399Z,25.58
2022-07-29T17:27:15.296Z,25.48
2022-07-29T17:29:43.313Z,25.44
2022-07-29T17:32:11.703Z,25.37
2022-07-29T17:34:40.633Z,25.32
2022-07-29T17:37:11.699Z,25.10
2022-07-29T17:39:41.170Z,25.14
2022-07-29T17:42:09.325Z,25.09
2022-07-29T17:44:37.173Z,24.96
2022-07-29T17:47:05.379Z,24.94
2022-07-29T17:49:36.305Z,24.89
2022-07-29T17:52:05.836Z,24.86
2022-07-29T17:54:34.947Z,24.84
2022-07-29T17:57:02.733Z,24.80
2022-07-29T17:59:30.492Z,24.76
2022-07-29T18:01:58.754Z,24.70
2022-07-29T18:04:26.574Z,24.68
2022-07-29T18:06:54.457Z,24.62
2022-07-29T18:09:22.162Z,24.48
2022-07-29T18:11:51.636Z,24.58
2022-07-29T18:14:19.446Z,24.56
2022-07-29T18:16:47.206Z,24.51
2022-07-29T18:19:16.003Z,24.45
2022-07-29T18:21:51.996Z,24.42
2022-07-29T18:24:25.151Z,24.29
2022-07-29T18:26:54.473Z,24.39
2022-07-29T18:29:22.417Z,24.35
2022-07-29T18:31:50.546Z,24.33
2022-07-29T18:34:18.335Z,24.29
2022-07-29T18:36:46.603Z,24.25
2022-07-29T18:39:20.000Z,24.16
2022-07-29T18:41:50.697Z,24.16
2022-07-29T18:44:21.684Z,24.09
2022-07-29T18:46:50.009Z,24.04
2022-07-29T18:49:17.862Z,24.00
2022-07-29T18:51:45.635Z,23.95
2022-07-29T18:54:13.435Z,23.77
2022-07-29T18:56:41.196Z,23.82
2022-07-29T18:59:09.118Z,23.74
2022-07-29T19:01:38.864Z,23.66
2022-07-29T19:04:06.686Z,23.61
2022-07-29T19:06:34.536Z,23.55
2022-07-29T19:09:02.519Z,23.45
2022-07-29T19:11:30.296Z,23.33
2022-07-29T19:13:58.430Z,23.24
2022-07-29T19:16:26.452Z,23.03
2022-07-29T19:18:56.088Z,23.03
2022-07-29T19:21:25.407Z,22.82
2022-07-29T19:24:06.462Z,22.74
2022-07-29T19:26:36.348Z,22.60
2022-07-29T19:29:04.928Z,22.46
2022-07-29T19:31:32.939Z,22.36
2022-07-29T19:34:02.159Z,22.22
2022-07-29T19:36:31.180Z,21.84
2022-07-29T19:38:59.894Z,21.83
2022-07-29T19:41:27.771Z,21.74
2022-07-29T19:43:55.623Z,21.79
2022-07-29T19:46:24.338Z,21.54
2022-07-29T19:48:52.909Z,21.32
2022-07-29T19:51:22.434Z,21.44
2022-07-29T19:53:50.382Z,21.32
2022-07-29T19:56:18.219Z,21.21
2022-07-29T19:58:47.166Z,21.11
2022-07-29T20:01:16.547Z,20.95
2022-07-29T20:03:44.667Z,20.93
2022-07-29T20:06:12.591Z,20.85
2022-07-29T20:08:41.663Z,20.57
2022-07-29T20:11:09.429Z,20.67
2022-07-29T20:13:37.275Z,20.58
2022-07-29T20:16:08.017Z,20.48
2022-07-29T20:18:36.119Z,20.39
2022-07-29T20:21:04.653Z,20.28
2022-07-29T20:23:33.378Z,20.17
2022-07-29T20:26:05.110Z,20.07
2022-07-29T20:28:35.247Z,19.96
2022-07-29T20:31:03.010Z,19.86
2022-07-29T20:33:30.806Z,19.78
2022-07-29T20:35:58.560Z,19.68
2022-07-29T20:38:26.283Z,19.58
2022-07-29T20:40:58.407Z,19.49
2022-07-29T20:43:27.658Z,19.38
2022-07-29T20:45:55.503Z,19.29
2022-07-29T20:48:23.300Z,19.21
2022-07-29T20:50:51.454Z,18.94
2022-07-29T20:53:20.326Z,19.05
2022-07-29T20:55:48.337Z,18.99
2022-07-29T20:58:16.074Z,18.93
2022-07-29T21:00:45.263Z,18.88
2022-07-29T21:03:13.011Z,18.81
2022-07-29T21:05:43.810Z,18.77
2022-07-29T21:08:12.299Z,18.49
2022-07-29T21:10:40.294Z,18.64
2022-07-29T21:13:08.151Z,18.56
2022-07-29T21:15:36.146Z,18.51
2022-07-29T21:18:09.162Z,18.46
2022-07-29T21:20:36.920Z,18.40
2022-07-29T21:23:04.726Z,18.35
2022-07-29T21:25:34.251Z,18.17
2022-07-29T21:28:19.834Z,18.24
2022-07-29T21:30:47.610Z,18.08
2022-07-29T21:33:16.924Z,18.14
2022-07-29T21:35:58.964Z,17.89
2022-07-29T21:38:33.292Z,18.05
2022-07-29T21:41:01.513Z,17.87
2022-07-29T21:43:29.757Z,17.89
2022-07-29T21:45:58.037Z,17.98
2022-07-29T21:48:29.594Z,17.98
2022-07-29T21:50:57.642Z,17.96
2022-07-29T21:53:27.749Z,17.92
2022-07-29T21:55:55.666Z,17.91
2022-07-29T21:58:24.551Z,17.78
2022-07-29T22:00:53.819Z,17.88
2022-07-29T22:03:21.862Z,17.87
2022-07-29T22:05:50.943Z,17.86
2022-07-29T22:08:20.981Z,17.85
2022-07-29T22:10:48.728Z,17.85
2022-07-29T22:13:16.565Z,17.86
2022-07-29T22:15:47.180Z,17.86
2022-07-29T22:18:21.105Z,17.85
2022-07-29T22:20:50.963Z,17.84
2022-07-29T22:23:18.820Z,17.66
2022-07-29T22:25:46.655Z,17.85
2022-07-29T22:28:14.420Z,17.83
2022-07-29T22:30:42.252Z,17.72
2022-07-29T22:33:16.841Z,17.84
2022-07-29T22:35:48.586Z,17.71
2022-07-29T22:38:18.466Z,17.85
2022-07-29T22:40:46.859Z,17.77
2022-07-29T22:43:16.539Z,17.89
2022-07-29T22:45:44.331Z,17.90
2022-07-29T22:48:12.178Z,17.91
2022-07-29T22:50:40.007Z,17.90
2022-07-29T22:53:07.988Z,17.91
2022-07-29T22:55:37.346Z,17.91
2022-07-29T22:58:05.352Z,17.91
2022-07-29T23:00:33.672Z,17.92
2022-07-29T23:03:01.522Z,17.91
2022-07-29T23:05:29.279Z,17.92
2022-07-29T23:07:57.138Z,17.93
2022-07-29T23:10:24.901Z,17.92
2022-07-29T23:12:54.018Z,17.91
2022-07-29T23:15:22.098Z,17.89
2022-07-29T23:17:49.822Z,17.88
2022-07-29T23:20:17.698Z,17.87
2022-07-29T23:22:45.585Z,17.71
2022-07-29T23:25:13.409Z,17.81
2022-07-29T23:27:41.463Z,17.75
2022-07-29T23:30:11.679Z,17.71
2022-07-29T23:32:42.515Z,17.50
2022-07-29T23:35:23.048Z,17.59
2022-07-29T23:37:54.914Z,17.47
2022-07-29T23:40:34.545Z,17.39
2022-07-29T23:43:08.568Z,17.36
2022-07-29T23:45:59.182Z,17.31
2022-07-29T23:48:29.080Z,16.00
2022-07-29T23:50:58.502Z,17.16
2022-07-29T23:53:26.596Z,17.09
2022-07-29T23:55:57.006Z,16.70
2022-07-29T23:58:41.979Z,16.97
